Pagina principale
METAR-TAF:

METAR-TAF

Aeroporti :

Augusta, Germania

latitudine: 48-26N, longitudine: 010-56E, altezza: 461 m

Osservazione

Il bollettino è stato emesso 30 minuti fa, alle 16:50 UTC
Vento 14 kt da ovest/sud-ovest con raffiche fino a 24 kt
Temperature 16°C
Umidità 59%
Pressione 1001 hPa
Visibilità 10 km o più
Nubi sparse ad un'altezza di 3200 ft
Nubi sparse ad un'altezza di 6500 ft

METAR: EDMA 051650Z 24014G24KT 9999 SCT032 SCT065 16/08 Q1001

Ora: 19:20 (17:20 UTC)

Previsione

Il bollettino è stato emesso 3 ore e 20 minuti fa, alle 14:00 UTC
Previsione valida dal 05 alle 15 UTC al 05 alle 24 UTC
Vento 10 kt da ovest/sud-ovest
Visibilità 10 km o più
Nubi sparse ad un'altezza di 4500 ft
Temporaneamente
dal 05 alle 15 UTC al 05 alle 22 UTC
Vento 15 kt da ovest/sud-ovest con raffiche fino a 25 kt

TAF: EDMA 051400Z 0515/0524 25010KT 9999 SCT045 TEMPO 0515/0522 25015G25KT

Osservazioni e previsioni meteorologiche di più di 4000 aeroporti (messaggi METAR e TAF).

Le stazioni disponibili sono rappresentate dai dischi gialli e rossi sulla carta.

Puntare il mouse per vedere il nome della stazione.

Clicca sopra per visualizzare le osservazioni e previsioni meteorologiche.

Per cambiare la mappa : fare clic sui pulsanti verdi con una croce nera per ingrandire, il pulsante verde con un trattino per diminuire, o sulla freccia verde per le mappe adiacenti.


METAR-TAF: